sensor_id;sensor_type;location;lat;lon;timestamp;pressure;altitude;pressure_sealevel;temperature;humidity
55187;BME280;55457;52.002;5.464;2022-09-03T00:04:39;100956.19;;;24.63;37.39
55187;BME280;55457;52.002;5.464;2022-09-03T00:07:17;100947.19;;;24.62;37.01
55187;BME280;55457;52.002;5.464;2022-09-03T00:09:50;100948.28;;;24.61;37.32
55187;BME280;55457;52.002;5.464;2022-09-03T00:12:26;100948.28;;;24.61;37.24
55187;BME280;55457;52.002;5.464;2022-09-03T00:15:14;100948.56;;;24.60;37.22
55187;BME280;55457;52.002;5.464;2022-09-03T00:18:08;100947.47;;;24.61;37.22
55187;BME280;55457;52.002;5.464;2022-09-03T00:20:42;100951.84;;;24.62;37.25
55187;BME280;55457;52.002;5.464;2022-09-03T00:23:15;100948.56;;;24.60;37.33
55187;BME280;55457;52.002;5.464;2022-09-03T00:28:27;100940.41;;;24.60;37.25
55187;BME280;55457;52.002;5.464;2022-09-03T00:31:08;100940.41;;;24.60;37.15
55187;BME280;55457;52.002;5.464;2022-09-03T00:33:38;100945.03;;;24.59;37.19
55187;BME280;55457;52.002;5.464;2022-09-03T00:38:37;100944.19;;;24.59;37.38
55187;BME280;55457;52.002;5.464;2022-09-03T00:41:13;100933.56;;;24.57;37.39
55187;BME280;55457;52.002;5.464;2022-09-03T00:44:24;100937.91;;;24.58;37.26
55187;BME280;55457;52.002;5.464;2022-09-03T00:47:03;100936.28;;;24.57;37.28
55187;BME280;55457;52.002;5.464;2022-09-03T00:52:37;100936.28;;;24.57;37.28
55187;BME280;55457;52.002;5.464;2022-09-03T01:00:41;100935.75;;;24.55;37.40
55187;BME280;55457;52.002;5.464;2022-09-03T01:16:48;100936.03;;;24.54;37.43
55187;BME280;55457;52.002;5.464;2022-09-03T01:21:58;100939.00;;;24.52;37.25
55187;BME280;55457;52.002;5.464;2022-09-03T01:32:26;100942.81;;;24.51;37.26
55187;BME280;55457;52.002;5.464;2022-09-03T01:37:45;100947.47;;;24.51;37.51
55187;BME280;55457;52.002;5.464;2022-09-03T01:40:32;100941.19;;;24.50;37.17
55187;BME280;55457;52.002;5.464;2022-09-03T01:48:59;100937.91;;;24.48;37.14
55187;BME280;55457;52.002;5.464;2022-09-03T01:51:24;100933.53;;;24.47;37.33
55187;BME280;55457;52.002;5.464;2022-09-03T01:59:45;100942.53;;;24.47;37.17
55187;BME280;55457;52.002;5.464;2022-09-03T02:05:05;100939.81;;;24.47;37.33
55187;BME280;55457;52.002;5.464;2022-09-03T02:07:37;100943.63;;;24.46;37.21
55187;BME280;55457;52.002;5.464;2022-09-03T02:10:06;100941.72;;;24.47;37.20
55187;BME280;55457;52.002;5.464;2022-09-03T02:12:33;100939.00;;;24.47;36.96
55187;BME280;55457;52.002;5.464;2022-09-03T02:15:03;100934.63;;;24.46;37.03
55187;BME280;55457;52.002;5.464;2022-09-03T02:17:31;100935.72;;;24.45;37.07
55187;BME280;55457;52.002;5.464;2022-09-03T02:19:57;100932.19;;;24.44;37.12
55187;BME280;55457;52.002;5.464;2022-09-03T02:22:23;100942.81;;;24.46;36.99
55187;BME280;55457;52.002;5.464;2022-09-03T02:24:48;100948.53;;;24.44;37.17
55187;BME280;55457;52.002;5.464;2022-09-03T02:27:14;100942.28;;;24.44;36.97
55187;BME280;55457;52.002;5.464;2022-09-03T02:29:39;100941.44;;;24.43;37.16
55187;BME280;55457;52.002;5.464;2022-09-03T02:32:05;100936.81;;;24.44;37.04
55187;BME280;55457;52.002;5.464;2022-09-03T02:34:30;100936.81;;;24.44;37.23
55187;BME280;55457;52.002;5.464;2022-09-03T02:36:55;100935.16;;;24.43;37.11
55187;BME280;55457;52.002;5.464;2022-09-03T02:39:21;100936.25;;;24.42;37.20
55187;BME280;55457;52.002;5.464;2022-09-03T02:41:51;100928.06;;;24.42;36.98
55187;BME280;55457;52.002;5.464;2022-09-03T02:44:28;100932.72;;;24.41;37.01
55187;BME280;55457;52.002;5.464;2022-09-03T02:47:01;100936.25;;;24.42;37.08
55187;BME280;55457;52.002;5.464;2022-09-03T02:49:27;100927.25;;;24.41;37.10
55187;BME280;55457;52.002;5.464;2022-09-03T02:52:00;100926.44;;;24.41;37.05
55187;BME280;55457;52.002;5.464;2022-09-03T02:54:29;100920.19;;;24.40;36.97
55187;BME280;55457;52.002;5.464;2022-09-03T02:56:55;100917.47;;;24.40;36.85
55187;BME280;55457;52.002;5.464;2022-09-03T02:59:20;100924.00;;;24.39;37.11
55187;BME280;55457;52.002;5.464;2022-09-03T03:01:47;100923.19;;;24.39;36.93
55187;BME280;55457;52.002;5.464;2022-09-03T03:04:12;100925.63;;;24.40;37.12
55187;BME280;55457;52.002;5.464;2022-09-03T03:06:37;100928.63;;;24.39;37.15
55187;BME280;55457;52.002;5.464;2022-09-03T03:09:03;100917.75;;;24.39;37.11
55187;BME280;55457;52.002;5.464;2022-09-03T03:11:30;100917.75;;;24.39;37.10
55187;BME280;55457;52.002;5.464;2022-09-03T03:13:55;100916.94;;;24.38;37.04
55187;BME280;55457;52.002;5.464;2022-09-03T03:16:21;100910.63;;;24.38;36.94
55187;BME280;55457;52.002;5.464;2022-09-03T03:18:46;100916.06;;;24.38;37.23
55187;BME280;55457;52.002;5.464;2022-09-03T03:21:16;100909.00;;;24.37;37.04
55187;BME280;55457;52.002;5.464;2022-09-03T03:23:42;100907.91;;;24.38;37.24
55187;BME280;55457;52.002;5.464;2022-09-03T03:26:11;100901.09;;;24.35;37.29
55187;BME280;55457;52.002;5.464;2022-09-03T03:28:36;100913.63;;;24.36;37.07
55187;BME280;55457;52.002;5.464;2022-09-03T03:31:10;100914.44;;;24.37;37.26
55187;BME280;55457;52.002;5.464;2022-09-03T03:33:36;100915.53;;;24.36;37.21
55187;BME280;55457;52.002;5.464;2022-09-03T03:36:04;100912.81;;;24.36;37.20
55187;BME280;55457;52.002;5.464;2022-09-03T03:38:31;100917.69;;;24.34;37.24
55187;BME280;55457;52.002;5.464;2022-09-03T03:40:56;100912.00;;;24.35;36.98
55187;BME280;55457;52.002;5.464;2022-09-03T03:43:21;100917.44;;;24.35;37.07
55187;BME280;55457;52.002;5.464;2022-09-03T03:45:57;100912.00;;;24.35;37.16
55187;BME280;55457;52.002;5.464;2022-09-03T03:48:23;100910.34;;;24.34;37.32
55187;BME280;55457;52.002;5.464;2022-09-03T03:50:48;100919.31;;;24.35;37.25
55187;BME280;55457;52.002;5.464;2022-09-03T03:53:14;100909.53;;;24.34;37.20
55187;BME280;55457;52.002;5.464;2022-09-03T03:55:39;100920.41;;;24.34;37.26
55187;BME280;55457;52.002;5.464;2022-09-03T03:58:04;100925.88;;;24.34;37.08
55187;BME280;55457;52.002;5.464;2022-09-03T04:00:29;100918.78;;;24.33;37.24
55187;BME280;55457;52.002;5.464;2022-09-03T04:02:55;100924.22;;;24.33;37.21
55187;BME280;55457;52.002;5.464;2022-09-03T04:05:20;100907.03;;;24.32;37.15
55187;BME280;55457;52.002;5.464;2022-09-03T04:07:45;100918.78;;;24.33;37.20
55187;BME280;55457;52.002;5.464;2022-09-03T04:10:11;100912.50;;;24.32;37.15
55187;BME280;55457;52.002;5.464;2022-09-03T04:12:37;100914.41;;;24.32;37.33
55187;BME280;55457;52.002;5.464;2022-09-03T04:15:02;100919.84;;;24.32;37.15
55187;BME280;55457;52.002;5.464;2022-09-03T04:17:28;100906.22;;;24.32;37.39
55187;BME280;55457;52.002;5.464;2022-09-03T04:19:53;100909.22;;;24.30;37.35
55187;BME280;55457;52.002;5.464;2022-09-03T04:22:18;100907.31;;;24.31;37.33
55187;BME280;55457;52.002;5.464;2022-09-03T04:24:44;100908.41;;;24.30;37.17
55187;BME280;55457;52.002;5.464;2022-09-03T04:27:10;100908.41;;;24.30;37.32
55187;BME280;55457;52.002;5.464;2022-09-03T04:29:35;100910.03;;;24.31;37.17
55187;BME280;55457;52.002;5.464;2022-09-03T04:32:00;100898.34;;;24.30;37.46
55187;BME280;55457;52.002;5.464;2022-09-03T04:34:44;100909.22;;;24.30;37.25
55187;BME280;55457;52.002;5.464;2022-09-03T04:37:10;100902.16;;;24.29;37.24
55187;BME280;55457;52.002;5.464;2022-09-03T04:39:35;100911.41;;;24.28;37.10
55187;BME280;55457;52.002;5.464;2022-09-03T04:42:01;100911.13;;;24.30;37.32
55187;BME280;55457;52.002;5.464;2022-09-03T04:44:26;100916.88;;;24.28;37.23
55187;BME280;55457;52.002;5.464;2022-09-03T04:46:52;100916.88;;;24.28;37.04
55187;BME280;55457;52.002;5.464;2022-09-03T04:49:17;100915.19;;;24.27;37.11
55187;BME280;55457;52.002;5.464;2022-09-03T04:51:43;100909.75;;;24.27;37.33
55187;BME280;55457;52.002;5.464;2022-09-03T04:54:09;100910.59;;;24.28;37.11
55187;BME280;55457;52.002;5.464;2022-09-03T04:56:35;100914.38;;;24.27;37.34
55187;BME280;55457;52.002;5.464;2022-09-03T04:59:07;100911.66;;;24.27;37.48
55187;BME280;55457;52.002;5.464;2022-09-03T05:01:34;100908.94;;;24.27;37.43
55187;BME280;55457;52.002;5.464;2022-09-03T05:04:00;100914.38;;;24.27;37.51
55187;BME280;55457;52.002;5.464;2022-09-03T05:06:28;100913.56;;;24.26;37.61
55187;BME280;55457;52.002;5.464;2022-09-03T05:08:54;100917.09;;;24.27;37.24
55187;BME280;55457;52.002;5.464;2022-09-03T05:11:20;100922.84;;;24.25;37.48
55187;BME280;55457;52.002;5.464;2022-09-03T05:13:48;100918.19;;;24.26;37.05
55187;BME280;55457;52.002;5.464;2022-09-03T05:16:13;100914.66;;;24.25;37.31
55187;BME280;55457;52.002;5.464;2022-09-03T05:18:39;100911.94;;;24.25;37.28
55187;BME280;55457;52.002;5.464;2022-09-03T05:21:11;100918.19;;;24.26;37.43
55187;BME280;55457;52.002;5.464;2022-09-03T05:23:42;100909.50;;;24.24;37.35
55187;BME280;55457;52.002;5.464;2022-09-03T05:26:13;100909.50;;;24.24;37.25
55187;BME280;55457;52.002;5.464;2022-09-03T05:28:41;100909.50;;;24.24;37.35
55187;BME280;55457;52.002;5.464;2022-09-03T05:31:14;100915.75;;;24.24;37.51
55187;BME280;55457;52.002;5.464;2022-09-03T05:33:42;100914.13;;;24.23;37.19
55187;BME280;55457;52.002;5.464;2022-09-03T05:36:16;100909.50;;;24.24;37.46
55187;BME280;55457;52.002;5.464;2022-09-03T05:38:42;100913.31;;;24.23;37.53
55187;BME280;55457;52.002;5.464;2022-09-03T05:41:09;100913.31;;;24.23;37.30
55187;BME280;55457;52.002;5.464;2022-09-03T05:43:36;100918.75;;;24.23;37.30
55187;BME280;55457;52.002;5.464;2022-09-03T05:46:09;100913.31;;;24.23;37.53
55187;BME280;55457;52.002;5.464;2022-09-03T05:48:36;100913.31;;;24.23;37.25
55187;BME280;55457;52.002;5.464;2022-09-03T05:51:11;100917.09;;;24.21;37.43
55187;BME280;55457;52.002;5.464;2022-09-03T05:53:39;100922.53;;;24.21;37.58
55187;BME280;55457;52.002;5.464;2022-09-03T05:56:10;100922.53;;;24.21;37.50
55187;BME280;55457;52.002;5.464;2022-09-03T05:58:37;100924.19;;;24.23;37.53
55187;BME280;55457;52.002;5.464;2022-09-03T06:03:43;100916.28;;;24.21;37.37
55187;BME280;55457;52.002;5.464;2022-09-03T06:06:09;100918.75;;;24.23;37.42
55187;BME280;55457;52.002;5.464;2022-09-03T06:08:35;100919.28;;;24.19;37.44
55187;BME280;55457;52.002;5.464;2022-09-03T06:11:05;100913.00;;;24.19;37.68
55187;BME280;55457;52.002;5.464;2022-09-03T06:13:32;100919.28;;;24.19;37.59
55187;BME280;55457;52.002;5.464;2022-09-03T06:15:58;100914.91;;;24.18;37.70
55187;BME280;55457;52.002;5.464;2022-09-03T06:18:26;100925.53;;;24.20;37.54
55187;BME280;55457;52.002;5.464;2022-09-03T06:20:59;100927.72;;;24.18;37.49
55187;BME280;55457;52.002;5.464;2022-09-03T06:23:26;100918.75;;;24.17;37.72
55187;BME280;55457;52.002;5.464;2022-09-03T06:26:10;100917.88;;;24.17;37.60
55187;BME280;55457;52.002;5.464;2022-09-03T06:28:38;100914.34;;;24.16;37.66
55187;BME280;55457;52.002;5.464;2022-09-03T06:31:07;100914.34;;;24.16;37.55
55187;BME280;55457;52.002;5.464;2022-09-03T06:33:34;100912.72;;;24.15;37.76
55187;BME280;55457;52.002;5.464;2022-09-03T06:36:03;100925.25;;;24.16;37.52
55187;BME280;55457;52.002;5.464;2022-09-03T06:38:30;100912.72;;;24.15;37.71
55187;BME280;55457;52.002;5.464;2022-09-03T06:41:04;100912.72;;;24.15;37.59
55187;BME280;55457;52.002;5.464;2022-09-03T06:43:32;100919.81;;;24.16;37.67
55187;BME280;55457;52.002;5.464;2022-09-03T06:46:02;100924.44;;;24.16;37.40
55187;BME280;55457;52.002;5.464;2022-09-03T06:48:29;100924.19;;;24.17;37.80
55187;BME280;55457;52.002;5.464;2022-09-03T06:51:00;100926.91;;;24.17;37.73
55187;BME280;55457;52.002;5.464;2022-09-03T06:53:28;100927.72;;;24.18;37.62
55187;BME280;55457;52.002;5.464;2022-09-03T06:55:56;100922.28;;;24.18;37.73
55187;BME280;55457;52.002;5.464;2022-09-03T06:58:24;100919.81;;;24.16;37.79
55187;BME280;55457;52.002;5.464;2022-09-03T07:00:50;100919.81;;;24.16;37.84
55187;BME280;55457;52.002;5.464;2022-09-03T07:03:19;100916.00;;;24.17;37.60
55187;BME280;55457;52.002;5.464;2022-09-03T07:05:46;100918.75;;;24.17;37.83
55187;BME280;55457;52.002;5.464;2022-09-03T07:08:11;100913.28;;;24.17;37.79
55187;BME280;55457;52.002;5.464;2022-09-03T07:10:37;100920.09;;;24.20;37.65
55187;BME280;55457;52.002;5.464;2022-09-03T07:13:03;100916.00;;;24.17;38.01
55187;BME280;55457;52.002;5.464;2022-09-03T07:15:31;100915.72;;;24.14;37.92
55187;BME280;55457;52.002;5.464;2022-09-03T07:17:57;100921.69;;;24.11;38.19
55187;BME280;55457;52.002;5.464;2022-09-03T07:20:22;100912.97;;;24.09;38.20
55187;BME280;55457;52.002;5.464;2022-09-03T07:22:48;100920.59;;;24.07;38.12
55187;BME280;55457;52.002;5.464;2022-09-03T07:25:13;100924.13;;;24.02;38.00
55187;BME280;55457;52.002;5.464;2022-09-03T07:27:38;100924.13;;;24.02;38.02
55187;BME280;55457;52.002;5.464;2022-09-03T07:30:04;100923.84;;;24.04;37.93
55187;BME280;55457;52.002;5.464;2022-09-03T07:32:33;100926.56;;;24.04;37.93
55187;BME280;55457;52.002;5.464;2022-09-03T07:35:01;100929.00;;;24.00;38.19
55187;BME280;55457;52.002;5.464;2022-09-03T07:37:27;100918.69;;;24.02;38.06
55187;BME280;55457;52.002;5.464;2022-09-03T07:39:52;100918.13;;;24.05;38.03
55187;BME280;55457;52.002;5.464;2022-09-03T07:42:18;100926.81;;;23.97;37.82
55187;BME280;55457;52.002;5.464;2022-09-03T07:44:44;100933.31;;;23.96;38.16
55187;BME280;55457;52.002;5.464;2022-09-03T07:47:10;100926.00;;;23.97;37.90
55187;BME280;55457;52.002;5.464;2022-09-03T07:49:35;100919.16;;;23.89;38.14
55187;BME280;55457;52.002;5.464;2022-09-03T07:52:00;100930.34;;;23.92;38.11
55187;BME280;55457;52.002;5.464;2022-09-03T07:54:27;100929.78;;;23.95;38.15
55187;BME280;55457;52.002;5.464;2022-09-03T07:56:52;100932.81;;;23.99;38.25
55187;BME280;55457;52.002;5.464;2022-09-03T07:59:17;100924.94;;;24.03;37.99
55187;BME280;55457;52.002;5.464;2022-09-03T08:01:44;100929.59;;;24.07;37.99
55187;BME280;55457;52.002;5.464;2022-09-03T08:04:09;100937.22;;;24.10;38.01
55187;BME280;55457;52.002;5.464;2022-09-03T08:06:36;100932.31;;;24.07;38.18
55187;BME280;55457;52.002;5.464;2022-09-03T08:09:05;100938.31;;;24.14;38.00
55187;BME280;55457;52.002;5.464;2022-09-03T08:11:35;100939.69;;;24.17;37.88
55187;BME280;55457;52.002;5.464;2022-09-03T08:14:05;100930.44;;;24.18;38.03
55187;BME280;55457;52.002;5.464;2022-09-03T08:16:34;100943.00;;;24.24;38.20
55187;BME280;55457;52.002;5.464;2022-09-03T08:19:00;100946.25;;;24.26;38.30
55187;BME280;55457;52.002;5.464;2022-09-03T08:21:26;100956.34;;;24.31;37.81
55187;BME280;55457;52.002;5.464;2022-09-03T08:23:53;100944.34;;;24.32;37.81
55187;BME280;55457;52.002;5.464;2022-09-03T08:26:21;100952.84;;;24.35;37.85
55187;BME280;55457;52.002;5.464;2022-09-03T08:28:47;100949.63;;;24.38;38.07
55187;BME280;55457;52.002;5.464;2022-09-03T08:31:18;100946.59;;;24.40;37.97
55187;BME280;55457;52.002;5.464;2022-09-03T08:33:55;100947.97;;;24.42;37.91
55187;BME280;55457;52.002;5.464;2022-09-03T08:36:28;100945.53;;;24.46;37.84
55187;BME280;55457;52.002;5.464;2022-09-03T08:38:55;100943.34;;;24.48;38.04
55187;BME280;55457;52.002;5.464;2022-09-03T08:41:29;100946.09;;;24.53;37.75
55187;BME280;55457;52.002;5.464;2022-09-03T08:57:50;100948.31;;;24.71;37.94
55187;BME280;55457;52.002;5.464;2022-09-03T09:00:17;100945.88;;;24.75;37.83
55187;BME280;55457;52.002;5.464;2022-09-03T09:08:18;100949.44;;;24.86;37.99
55187;BME280;55457;52.002;5.464;2022-09-03T09:10:57;100939.59;;;24.90;38.17
55187;BME280;55457;52.002;5.464;2022-09-03T09:13:33;100950.78;;;24.93;38.03
55187;BME280;55457;52.002;5.464;2022-09-03T09:19:23;100948.34;;;25.02;37.90
55187;BME280;55457;52.002;5.464;2022-09-03T09:21:56;100947.78;;;25.05;38.05
55187;BME280;55457;52.002;5.464;2022-09-03T09:24:26;100942.66;;;25.09;38.07
55187;BME280;55457;52.002;5.464;2022-09-03T09:26:59;100942.94;;;25.12;37.67
55187;BME280;55457;52.002;5.464;2022-09-03T09:29:28;100937.72;;;25.16;37.79
55187;BME280;55457;52.002;5.464;2022-09-03T09:31:55;100936.38;;;25.18;37.92
55187;BME280;55457;52.002;5.464;2022-09-03T09:34:21;100942.38;;;25.25;37.97
55187;BME280;55457;52.002;5.464;2022-09-03T09:36:52;100939.63;;;25.31;38.00
55187;BME280;55457;52.002;5.464;2022-09-03T09:39:18;100938.81;;;25.35;38.02
55187;BME280;55457;52.002;5.464;2022-09-03T09:41:56;100940.72;;;25.40;37.98
55187;BME280;55457;52.002;5.464;2022-09-03T09:44:24;100937.97;;;25.45;37.87
55187;BME280;55457;52.002;5.464;2022-09-03T09:46:50;100939.63;;;25.46;37.98
55187;BME280;55457;52.002;5.464;2022-09-03T09:49:30;100941.22;;;25.52;37.99
55187;BME280;55457;52.002;5.464;2022-09-03T09:52:07;100940.16;;;25.58;37.67
55187;BME280;55457;52.002;5.464;2022-09-03T09:54:33;100950.22;;;25.63;38.14
55187;BME280;55457;52.002;5.464;2022-09-03T09:57:04;100951.03;;;25.68;38.01
55187;BME280;55457;52.002;5.464;2022-09-03T09:59:30;100945.03;;;25.71;37.93
55187;BME280;55457;52.002;5.464;2022-09-03T10:02:09;100936.03;;;25.76;38.11
55187;BME280;55457;52.002;5.464;2022-09-03T10:04:36;100940.66;;;25.81;38.07
55187;BME280;55457;52.002;5.464;2022-09-03T10:07:17;100929.72;;;25.86;37.78
55187;BME280;55457;52.002;5.464;2022-09-03T10:09:44;100938.16;;;25.89;37.71
55187;BME280;55457;52.002;5.464;2022-09-03T10:12:19;100937.34;;;25.94;37.64
55187;BME280;55457;52.002;5.464;2022-09-03T10:14:54;100941.16;;;25.98;37.54
55187;BME280;55457;52.002;5.464;2022-09-03T10:23:16;100931.78;;;26.14;37.65
55187;BME280;55457;52.002;5.464;2022-09-03T10:25:58;100932.88;;;26.18;37.60
55187;BME280;55457;52.002;5.464;2022-09-03T10:28:31;100933.13;;;26.22;37.10
55187;BME280;55457;52.002;5.464;2022-09-03T10:31:27;100927.66;;;26.27;37.42
55187;BME280;55457;52.002;5.464;2022-09-03T10:34:31;100915.88;;;26.32;37.45
55187;BME280;55457;52.002;5.464;2022-09-03T10:42:45;100925.09;;;26.46;37.53
55187;BME280;55457;52.002;5.464;2022-09-03T10:50:29;100925.88;;;26.51;37.28
55187;BME280;55457;52.002;5.464;2022-09-03T10:53:19;100924.50;;;26.54;37.54
55187;BME280;55457;52.002;5.464;2022-09-03T11:04:27;100914.59;;;26.68;37.30
55187;BME280;55457;52.002;5.464;2022-09-03T11:07:03;100917.53;;;26.72;37.20
55187;BME280;55457;52.002;5.464;2022-09-03T11:12:12;100918.91;;;26.74;37.22
55187;BME280;55457;52.002;5.464;2022-09-03T11:14:46;100926.25;;;26.79;37.44
55187;BME280;55457;52.002;5.464;2022-09-03T11:17:41;100917.22;;;26.84;36.90
55187;BME280;55457;52.002;5.464;2022-09-03T11:20:14;100923.72;;;26.88;37.21
55187;BME280;55457;52.002;5.464;2022-09-03T11:22:42;100911.41;;;26.90;37.00
55187;BME280;55457;52.002;5.464;2022-09-03T11:25:10;100908.06;;;26.93;36.86
55187;BME280;55457;52.002;5.464;2022-09-03T11:35:28;100913.75;;;27.02;36.75
55187;BME280;55457;52.002;5.464;2022-09-03T11:38:18;100910.72;;;27.03;36.50
55187;BME280;55457;52.002;5.464;2022-09-03T11:45:48;100895.66;;;27.11;36.31
55187;BME280;55457;52.002;5.464;2022-09-03T11:48:53;100900.84;;;27.13;36.67
55187;BME280;55457;52.002;5.464;2022-09-03T11:51:31;100900.53;;;27.14;36.46
55187;BME280;55457;52.002;5.464;2022-09-03T11:54:00;100899.16;;;27.17;36.16
55187;BME280;55457;52.002;5.464;2022-09-03T11:56:27;100905.97;;;27.19;36.42
55187;BME280;55457;52.002;5.464;2022-09-03T11:59:00;100908.13;;;27.22;36.35
55187;BME280;55457;52.002;5.464;2022-09-03T12:01:27;100902.09;;;27.25;36.37
55187;BME280;55457;52.002;5.464;2022-09-03T12:03:57;100899.59;;;27.29;36.17
55187;BME280;55457;52.002;5.464;2022-09-03T12:07:05;100907.22;;;27.32;36.15
55187;BME280;55457;52.002;5.464;2022-09-03T12:18:33;100904.78;;;27.30;35.97
55187;BME280;55457;52.002;5.464;2022-09-03T12:21:01;100908.09;;;27.27;36.28
55187;BME280;55457;52.002;5.464;2022-09-03T12:23:34;100905.91;;;27.24;36.18
55187;BME280;55457;52.002;5.464;2022-09-03T12:26:06;100912.78;;;27.22;36.52
55187;BME280;55457;52.002;5.464;2022-09-03T12:28:40;100912.25;;;27.20;36.29
55187;BME280;55457;52.002;5.464;2022-09-03T12:31:16;100909.81;;;27.18;36.07
55187;BME280;55457;52.002;5.464;2022-09-03T12:36:15;100920.00;;;27.13;36.23
55187;BME280;55457;52.002;5.464;2022-09-03T12:38:41;100913.44;;;27.09;36.24
55187;BME280;55457;52.002;5.464;2022-09-03T12:41:22;100917.28;;;27.08;36.47
55187;BME280;55457;52.002;5.464;2022-09-03T12:43:52;100917.84;;;27.04;36.32
55187;BME280;55457;52.002;5.464;2022-09-03T12:46:21;100913.75;;;27.02;36.46
55187;BME280;55457;52.002;5.464;2022-09-03T12:49:05;100907.78;;;27.00;36.16
55187;BME280;55457;52.002;5.464;2022-09-03T12:51:40;100906.41;;;26.97;36.73
55187;BME280;55457;52.002;5.464;2022-09-03T12:54:07;100906.69;;;26.96;36.41
55187;BME280;55457;52.002;5.464;2022-09-03T12:56:39;100903.44;;;26.94;36.44
55187;BME280;55457;52.002;5.464;2022-09-03T12:59:08;100906.19;;;26.94;36.67
55187;BME280;55457;52.002;5.464;2022-09-03T13:01:48;100913.53;;;26.93;36.49
55187;BME280;55457;52.002;5.464;2022-09-03T13:04:20;100912.22;;;26.91;36.84
55187;BME280;55457;52.002;5.464;2022-09-03T13:06:53;100912.78;;;26.88;37.07
55187;BME280;55457;52.002;5.464;2022-09-03T13:09:22;100920.72;;;26.89;36.68
55187;BME280;55457;52.002;5.464;2022-09-03T13:11:48;100907.31;;;26.88;36.69
55187;BME280;55457;52.002;5.464;2022-09-03T13:14:16;100908.41;;;26.87;37.09
55187;BME280;55457;52.002;5.464;2022-09-03T13:22:12;100903.66;;;26.68;37.30
55187;BME280;55457;52.002;5.464;2022-09-03T13:32:56;100899.41;;;26.52;37.62
55187;BME280;55457;52.002;5.464;2022-09-03T13:35:46;100906.22;;;26.49;37.74
55187;BME280;55457;52.002;5.464;2022-09-03T13:41:17;100896.69;;;26.47;37.97
55187;BME280;55457;52.002;5.464;2022-09-03T13:46:27;100892.31;;;26.46;37.98
55187;BME280;55457;52.002;5.464;2022-09-03T13:49:38;100892.31;;;26.46;37.96
55187;BME280;55457;52.002;5.464;2022-09-03T13:57:54;100886.81;;;26.51;38.18
55187;BME280;55457;52.002;5.464;2022-09-03T14:01:12;100883.25;;;26.50;38.07
55187;BME280;55457;52.002;5.464;2022-09-03T14:08:44;100895.56;;;26.53;38.08
55187;BME280;55457;52.002;5.464;2022-09-03T14:14:01;100881.91;;;26.48;38.02
55187;BME280;55457;52.002;5.464;2022-09-03T14:16:41;100889.81;;;26.49;37.91
55187;BME280;55457;52.002;5.464;2022-09-03T14:19:15;100899.66;;;26.50;37.72
55187;BME280;55457;52.002;5.464;2022-09-03T14:21:59;100885.72;;;26.52;37.67
55187;BME280;55457;52.002;5.464;2022-09-03T14:24:33;100892.00;;;26.52;37.64
55187;BME280;55457;52.002;5.464;2022-09-03T14:27:03;100890.09;;;26.53;37.98
55187;BME280;55457;52.002;5.464;2022-09-03T14:29:34;100894.75;;;26.52;37.80
55187;BME280;55457;52.002;5.464;2022-09-03T14:32:23;100892.81;;;26.53;37.89
55187;BME280;55457;52.002;5.464;2022-09-03T14:35:08;100884.03;;;26.56;37.58
55187;BME280;55457;52.002;5.464;2022-09-03T14:45:32;100892.00;;;26.52;37.63
55187;BME280;55457;52.002;5.464;2022-09-03T14:48:20;100888.16;;;26.53;37.53
55187;BME280;55457;52.002;5.464;2022-09-03T14:51:02;100879.72;;;26.50;37.90
55187;BME280;55457;52.002;5.464;2022-09-03T14:59:23;100889.56;;;26.46;37.60
55187;BME280;55457;52.002;5.464;2022-09-03T15:07:23;100890.66;;;26.50;37.14
55187;BME280;55457;52.002;5.464;2022-09-03T15:10:11;100886.00;;;26.50;37.48
55187;BME280;55457;52.002;5.464;2022-09-03T15:12:45;100884.38;;;26.49;37.37
55187;BME280;55457;52.002;5.464;2022-09-03T15:15:29;100884.38;;;26.49;37.01
55187;BME280;55457;52.002;5.464;2022-09-03T15:20:51;100884.09;;;26.46;37.55
55187;BME280;55457;52.002;5.464;2022-09-03T15:23:24;100894.22;;;26.45;37.30
55187;BME280;55457;52.002;5.464;2022-09-03T15:26:49;100891.22;;;26.47;37.06
55187;BME280;55457;52.002;5.464;2022-09-03T15:29:40;100889.56;;;26.46;37.34
55187;BME280;55457;52.002;5.464;2022-09-03T15:37:43;100896.97;;;26.40;37.23
55187;BME280;55457;52.002;5.464;2022-09-03T15:42:50;100896.13;;;26.40;36.92
55187;BME280;55457;52.002;5.464;2022-09-03T15:48:20;100894.50;;;26.39;37.19
55187;BME280;55457;52.002;5.464;2022-09-03T15:51:15;100888.22;;;26.38;37.36
55187;BME280;55457;52.002;5.464;2022-09-03T15:54:23;100891.53;;;26.35;37.55
55187;BME280;55457;52.002;5.464;2022-09-03T15:59:48;100890.72;;;26.29;37.48
55187;BME280;55457;52.002;5.464;2022-09-03T16:02:39;100888.84;;;26.25;37.95
55187;BME280;55457;52.002;5.464;2022-09-03T16:05:25;100894.06;;;26.26;37.49
55187;BME280;55457;52.002;5.464;2022-09-03T16:08:16;100884.19;;;26.25;37.83
55187;BME280;55457;52.002;5.464;2022-09-03T16:11:06;100896.78;;;26.26;37.60
55187;BME280;55457;52.002;5.464;2022-09-03T16:16:51;100896.22;;;26.24;37.56
55187;BME280;55457;52.002;5.464;2022-09-03T16:21:58;100896.81;;;26.21;37.94
55187;BME280;55457;52.002;5.464;2022-09-03T16:27:16;100908.31;;;26.13;38.24
55187;BME280;55457;52.002;5.464;2022-09-03T16:30:00;100905.06;;;26.11;37.92
55187;BME280;55457;52.002;5.464;2022-09-03T16:32:38;100902.88;;;26.08;38.09
55187;BME280;55457;52.002;5.464;2022-09-03T16:38:01;100912.47;;;26.06;38.42
55187;BME280;55457;52.002;5.464;2022-09-03T16:40:42;100908.34;;;26.03;38.38
55187;BME280;55457;52.002;5.464;2022-09-03T16:43:21;100905.09;;;26.01;38.50
55187;BME280;55457;52.002;5.464;2022-09-03T16:55:01;100901.31;;;25.92;38.73
55187;BME280;55457;52.002;5.464;2022-09-03T17:00:22;100911.97;;;25.88;38.92
55187;BME280;55457;52.002;5.464;2022-09-03T17:03:13;100899.41;;;25.87;38.73